Terminal Aerodrome Forecast
Issued by NWS Cleveland, OH

Home | Current Version | Previous Version | Text Only | Print | Product List | Glossary On
Versions: 1 2 3 4 5 6 7 8 9 10 11 12 13 14 15 16
046
FTUS41 KCLE 142359 CCA
TAFTOL
TAF COR
KTOL 142359Z 1500/1524 12008KT P6SM FEW025 OVC080
     FM150100 12008KT 3SM -SN SCT015 OVC025
      TEMPO 1501/1505 2SM -SN BKN015 OVC025
     FM150500 11006KT 2SM -SN SCT015 OVC025
      TEMPO 1506/1508 1 1/2SM -SN OVC012
     FM151000 13005KT 5SM -SN BKN015 OVC020
     FM151400 18010KT P6SM OVC010=

USA.gov is the U.S. government's official web portal to all federal, state and local government web resources and services.